This is the latest recevied weather packets stored in our database for station/object KI7CSN-13. If no packets are shown the sender has not sent any weather packets the latest 1 day(s).
| Time | Temp. | Humidity | Pressure | Rain* | Wind** | Luminosity | Snow |
|---|---|---|---|---|---|---|---|
| 1778036859 | 13.33° C | 36% | 980.2 hPa | 0 mm | 0 m/s | - | - |
| 1778036559 | 13.89° C | 35% | 980.2 hPa | 0 mm | 1.34 m/s, 262° | - | - |
| 1778036259 | 13.89° C | 35% | 980 hPa | 0 mm | 2.24 m/s, 227° | - | - |
| 1778035959 | 14.44° C | 35% | 979.9 hPa | 0 mm | 1.79 m/s, 217° | - | - |
| 1778035659 | 14.44° C | 35% | 979.8 hPa | 0 mm | 0 m/s | - | - |
| 1778035359 | 14.44° C | 35% | 979.8 hPa | 0 mm | 3.58 m/s, 234° | - | - |
| 1778035059 | 14.44° C | 35% | 979.8 hPa | 0 mm | 3.13 m/s, 251° | - | - |
| 1778034759 | 14.44° C | 35% | 979.8 hPa | 0 mm | 1.79 m/s, 241° | - | - |
| 1778034459 | 14.44° C | 34% | 979.7 hPa | 0 mm | 2.24 m/s, 257° | - | - |
| 1778034159 | 15° C | 33% | 979.6 hPa | 0 mm | 2.68 m/s, 236° | - | - |
| 1778033859 | 15° C | 33% | 979.5 hPa | 0 mm | 3.13 m/s, 272° | - | - |
| 1778033559 | 15° C | 33% | 979.5 hPa | 0 mm | 1.79 m/s, 260° | - | - |
| 1778033259 | 15° C | 33% | 979.4 hPa | 0 mm | 2.24 m/s, 336° | - | - |
| 1778032959 | 15° C | 33% | 979.4 hPa | 0 mm | 2.68 m/s, 261° | - | - |
| 1778032659 | 15° C | 33% | 979.1 hPa | 0 mm | 4.47 m/s, 210° | - | - |
| 1778032359 | 15° C | 33% | 979.1 hPa | 0 mm | 2.68 m/s, 234° | - | - |
| 1778032059 | 15.56° C | 33% | 979 hPa | 0 mm | 4.02 m/s, 240° | - | - |
| 1778031759 | 16.11° C | 33% | 979 hPa | 0 mm | 4.47 m/s, 226° | - | - |
| 1778031459 | 15.56° C | 33% | 979 hPa | 0 mm | 5.36 m/s, 216° | - | - |
| 1778031159 | 16.67° C | 32% | 978.9 hPa | 0 mm | 1.79 m/s, 209° | - | - |
| 1778030859 | 16.11° C | 33% | 978.9 hPa | 0 mm | 5.81 m/s, 212° | - | - |
| 1778030559 | 16.67° C | 31% | 978.9 hPa | 0 mm | 2.24 m/s, 255° | - | - |
| 1778030259 | 16.11° C | 33% | 978.8 hPa | 0 mm | 5.36 m/s, 202° | - | - |
| 1778029959 | 16.67° C | 31% | 978.8 hPa | 0 mm | 3.58 m/s, 230° | - | - |
| 1778029659 | 17.22° C | 29% | 978.7 hPa | 0 mm | 3.13 m/s, 267° | - | - |
* Rain latest hour (hover to see other rain measurements)
** Current wind speed in m/s (hover to see current wind gust speed)